Time;durP1;ratioP1;P1;durP2;ratioP2;P2;SDS_P1;SDS_P2;PMS_P1;PMS_P2;Temp;Humidity;BMP_temperature;BMP_pressure;BME280_temperature;BME280_humidity;BME280_pressure;Samples;Min_cycle;Max_cycle;Signal;HPM_P1;HPM_P2
2023/05/18 00:01:13;;;;;;;;;;;;;;;;;;5172772;27;1727;-55
2023/05/18 00:03:40;;;;;;;;;;;;;;;;;;5173446;27;1675;-56
2023/05/18 00:06:08;;;;;;;;;;;;;;;;;;5173080;27;2095;-57
2023/05/18 00:08:37;;;;;;;;;;;;;;;;;;5173078;27;2192;-53
2023/05/18 00:11:04;;;;;;;;;;;;;;;;;;5173359;27;2240;-59
2023/05/18 00:13:32;;;;;;;;;;;;;;;;;;5173300;27;1578;-56
2023/05/18 00:15:59;;;;;;;;;;;;;;;;;;5176574;27;2094;-50
2023/05/18 00:18:27;;;;;;;;;;;;;;;;;;5176453;27;1917;-60
2023/05/18 00:21:00;;;;;;;;;;;;;;;;;;5176436;27;1094;-55
2023/05/18 00:23:29;;;;;;;;;;;;;;;;;;5176397;27;1440;-57
2023/05/18 00:25:57;;;;;;;;;;;;;;;;;;5176622;27;2017;-50
2023/05/18 00:28:25;;;;;;;;;;;;;;;;;;5176291;27;1514;-51
2023/05/18 00:30:52;;;;;;;;;;;;;;;;;;5157495;27;1600;-63
2023/05/18 00:33:20;;;;;;;;;;;;;;;;;;5176300;27;2119;-61
2023/05/18 00:35:49;;;;;;;;;;;;;;;;;;5176340;27;2264;-59
2023/05/18 00:38:17;;;;;;;;;;;;;;;;;;5176186;27;2037;-51
2023/05/18 00:40:44;;;;;;;;;;;;;;;;;;5157061;27;1613;-59
2023/05/18 00:43:11;;;;;;;;;;;;;;;;;;5157694;27;1810;-59
2023/05/18 00:45:38;;;;;;;;;;;;;;;;;;5176548;27;1533;-57
2023/05/18 00:48:06;;;;;;;;;;;;;;;;;;5176248;27;2074;-55
2023/05/18 00:50:33;;;;;;;;;;;;;;;;;;5176279;27;1734;-55
2023/05/18 00:53:01;;;;;;;;;;;;;;;;;;5176043;27;1784;-55
2023/05/18 00:55:28;;;;;;;;;;;;;;;;;;5175530;27;1598;-53
2023/05/18 00:57:56;;;;;;;;;;;;;;;;;;5175760;27;2172;-57
2023/05/18 01:00:24;;;;;;;;;;;;;;;;;;5157910;27;1853;-59
2023/05/18 01:02:52;;;;;;;;;;;;;;;;;;5136547;27;2072;-51
2023/05/18 01:05:21;;;;;;;;;;;;;;;;;;5154817;27;1932;-51
2023/05/18 01:07:49;;;;;;;;;;;;;;;;;;5154742;27;1804;-57
2023/05/18 01:10:17;;;;;;;;;;;;;;;;;;5154868;27;1537;-61
2023/05/18 01:12:52;;;;;;;;;;;;;;;;;;5136227;27;1987;-63
2023/05/18 01:15:22;;;;;;;;;;;;;;;;;;5154865;27;1803;-57
2023/05/18 01:18:13;;;;;;;;;;;;;;;;;;5136415;27;1910;-59
2023/05/18 01:20:45;;;;;;;;;;;;;;;;;;5136388;27;931;-53
2023/05/18 01:23:32;;;;;;;;;;;;;;;;;;5154708;27;1816;-56
2023/05/18 01:26:06;;;;;;;;;;;;;;;;;;5154459;27;1676;-56
2023/05/18 01:28:34;;;;;;;;;;;;;;;;;;5154265;27;2134;-52
2023/05/18 01:31:01;;;;;;;;;;;;;;;;;;5135500;27;2090;-59
2023/05/18 01:33:31;;;;;;;;;;;;;;;;;;5135194;27;2150;-62
2023/05/18 01:35:58;;;;;;;;;;;;;;;;;;5154249;27;1670;-61
2023/05/18 01:38:27;;;;;;;;;;;;;;;;;;5153709;27;1890;-55
2023/05/18 01:41:13;;;;;;;;;;;;;;;;;;5169499;27;1992;-61
2023/05/18 01:43:51;;;;;;;;;;;;;;;;;;5156210;27;1748;-60
2023/05/18 01:46:27;;;;;;;;;;;;;;;;;;5174694;27;1993;-59
2023/05/18 01:49:00;;;;;;;;;;;;;;;;;;5156007;27;1423;-53
2023/05/18 01:51:31;;;;;;;;;;;;;;;;;;5174880;27;1437;-53
2023/05/18 01:54:01;;;;;;;;;;;;;;;;;;5174687;27;1304;-54
2023/05/18 01:56:29;;;;;;;;;;;;;;;;;;5174889;27;1783;-54
2023/05/18 01:58:57;;;;;;;;;;;;;;;;;;5155870;27;1980;-54
2023/05/18 02:01:24;;;;;;;;;;;;;;;;;;5155787;27;1824;-49
2023/05/18 02:03:51;;;;;;;;;;;;;;;;;;5174492;27;1676;-57
2023/05/18 02:06:20;;;;;;;;;;;;;;;;;;5155117;27;1987;-62
2023/05/18 02:08:47;;;;;;;;;;;;;;;;;;5174640;27;1563;-59
2023/05/18 02:11:14;;;;;;;;;;;;;;;;;;5155745;27;2243;-60
2023/05/18 02:13:41;;;;;;;;;;;;;;;;;;5155538;27;2045;-57
2023/05/18 02:16:10;;;;;;;;;;;;;;;;;;5155428;27;2032;-48
2023/05/18 02:18:38;;;;;;;;;;;;;;;;;;5174019;27;1953;-56
2023/05/18 02:21:08;;;;;;;;;;;;;;;;;;5174355;27;1673;-54
2023/05/18 02:23:36;;;;;;;;;;;;;;;;;;5173914;27;1431;-60
2023/05/18 02:26:03;;;;;;;;;;;;;;;;;;5141297;27;1767;-61
2023/05/18 02:28:30;;;;;;;;;;;;;;;;;;5134498;27;1856;-55
2023/05/18 02:31:07;;;;;;;;;;;;;;;;;;5153049;27;1257;-53
2023/05/18 02:33:43;;;;;;;;;;;;;;;;;;5134433;27;2269;-60
2023/05/18 02:36:11;;;;;;;;;;;;;;;;;;5139535;27;1956;-59
2023/05/18 02:38:42;;;;;;;;;;;;;;;;;;5134346;27;2013;-55
2023/05/18 02:41:10;;;;;;;;;;;;;;;;;;5152984;27;1710;-60
2023/05/18 02:43:38;;;;;;;;;;;;;;;;;;5152811;27;1617;-61
2023/05/18 02:46:06;;;;;;;;;;;;;;;;;;5134447;27;1929;-53
2023/05/18 02:48:34;;;;;;;;;;;;;;;;;;5134202;27;1918;-56
2023/05/18 02:51:02;;;;;;;;;;;;;;;;;;5152811;27;1943;-57
2023/05/18 02:53:29;;;;;;;;;;;;;;;;;;5134264;27;2090;-59
2023/05/18 02:56:02;;;;;;;;;;;;;;;;;;5141993;27;1870;-57
2023/05/18 02:58:44;;;;;;;;;;;;;;;;;;5154737;27;1910;-61
2023/05/18 03:01:26;;;;;;;;;;;;;;;;;;5154596;27;1914;-57
2023/05/18 03:03:56;;;;;;;;;;;;;;;;;;5154969;27;1385;-59
2023/05/18 03:06:25;;;;;;;;;;;;;;;;;;5154813;27;1984;-57
2023/05/18 03:08:54;;;;;;;;;;;;;;;;;;5154898;27;1427;-60
2023/05/18 03:11:27;;;;;;;;;;;;;;;;;;5154827;27;1749;-52
2023/05/18 03:13:54;;;;;;;;;;;;;;;;;;5173532;27;1814;-60
2023/05/18 03:16:27;;;;;;;;;;;;;;;;;;5173761;27;2002;-51
2023/05/18 03:18:57;;;;;;;;;;;;;;;;;;5154658;27;1906;-57
2023/05/18 03:21:34;;;;;;;;;;;;;;;;;;5154695;27;1646;-54
2023/05/18 03:24:02;;;;;;;;;;;;;;;;;;5154647;27;1750;-57
2023/05/18 03:26:32;;;;;;;;;;;;;;;;;;5153920;27;1993;-57
2023/05/18 03:29:00;;;;;;;;;;;;;;;;;;5173242;27;1304;-56
2023/05/18 03:31:30;;;;;;;;;;;;;;;;;;5154618;27;1447;-57
2023/05/18 03:33:59;;;;;;;;;;;;;;;;;;5154358;27;2105;-63
2023/05/18 03:36:27;;;;;;;;;;;;;;;;;;5154481;27;2039;-55
2023/05/18 03:38:54;;;;;;;;;;;;;;;;;;5173370;27;1909;-56
2023/05/18 03:41:22;;;;;;;;;;;;;;;;;;5154568;27;2284;-54
2023/05/18 03:43:51;;;;;;;;;;;;;;;;;;5154643;27;1483;-53
2023/05/18 03:46:18;;;;;;;;;;;;;;;;;;5154260;27;1858;-57
2023/05/18 03:48:46;;;;;;;;;;;;;;;;;;5155209;27;1989;-64
2023/05/18 03:51:17;;;;;;;;;;;;;;;;;;5158417;27;1359;-56
2023/05/18 03:53:45;;;;;;;;;;;;;;;;;;5177148;27;1816;-60
2023/05/18 03:56:13;;;;;;;;;;;;;;;;;;5177202;27;1446;-56
2023/05/18 03:58:41;;;;;;;;;;;;;;;;;;5140360;27;2175;-57
2023/05/18 04:01:09;;;;;;;;;;;;;;;;;;5144054;27;1602;-56
2023/05/18 04:03:37;;;;;;;;;;;;;;;;;;5157994;27;2117;-55
2023/05/18 04:06:05;;;;;;;;;;;;;;;;;;5176740;27;1594;-57
2023/05/18 04:08:33;;;;;;;;;;;;;;;;;;5158007;27;1746;-58
2023/05/18 04:11:00;;;;;;;;;;;;;;;;;;5176809;27;1714;-61
2023/05/18 04:13:28;;;;;;;;;;;;;;;;;;5176697;27;2024;-58
2023/05/18 04:15:57;;;;;;;;;;;;;;;;;;5176856;27;1694;-52
2023/05/18 04:18:29;;;;;;;;;;;;;;;;;;5167254;27;1917;-59
2023/05/18 04:20:57;;;;;;;;;;;;;;;;;;5155659;27;2120;-52
2023/05/18 04:23:25;;;;;;;;;;;;;;;;;;5155744;27;1830;-60
2023/05/18 04:25:52;;;;;;;;;;;;;;;;;;5137008;27;2179;-54
2023/05/18 04:28:20;;;;;;;;;;;;;;;;;;5155628;27;1863;-55
2023/05/18 04:30:47;;;;;;;;;;;;;;;;;;5137292;27;1652;-58
2023/05/18 04:33:15;;;;;;;;;;;;;;;;;;5155522;27;1381;-60
2023/05/18 04:35:43;;;;;;;;;;;;;;;;;;5137064;27;2355;-58
2023/05/18 04:38:11;;;;;;;;;;;;;;;;;;5155294;27;1650;-57
2023/05/18 04:40:41;;;;;;;;;;;;;;;;;;5136478;27;1917;-60
2023/05/18 04:43:11;;;;;;;;;;;;;;;;;;5136673;27;1645;-56
2023/05/18 04:45:38;;;;;;;;;;;;;;;;;;5136820;27;1818;-60
2023/05/18 04:48:06;;;;;;;;;;;;;;;;;;5136622;27;1406;-56
2023/05/18 04:50:36;;;;;;;;;;;;;;;;;;5133325;27;1721;-53
2023/05/18 04:53:06;;;;;;;;;;;;;;;;;;5133234;27;1418;-58
2023/05/18 04:55:34;;;;;;;;;;;;;;;;;;5133296;27;1844;-57
2023/05/18 04:58:09;;;;;;;;;;;;;;;;;;5132800;27;2557;-58
2023/05/18 05:00:36;;;;;;;;;;;;;;;;;;5132266;27;2453;-56
2023/05/18 05:03:04;;;;;;;;;;;;;;;;;;5133803;27;1308;-54
2023/05/18 05:05:31;;;;;;;;;;;;;;;;;;5132650;27;1704;-56
2023/05/18 05:07:59;;;;;;;;;;;;;;;;;;5134468;27;1869;-44
2023/05/18 05:10:29;;;;;;;;;;;;;;;;;;5134343;27;1278;-63
2023/05/18 05:12:58;;;;;;;;;;;;;;;;;;5132656;27;2093;-54
2023/05/18 05:15:25;;;;;;;;;;;;;;;;;;5132606;27;2005;-61
2023/05/18 05:17:53;;;;;;;;;;;;;;;;;;5132444;27;1816;-57
2023/05/18 05:20:20;;;;;;;;;;;;;;;;;;5132314;27;1905;-61
2023/05/18 05:22:48;;;;;;;;;;;;;;;;;;5134156;27;1843;-59
2023/05/18 05:25:20;;;;;;;;;;;;;;;;;;5132379;27;1870;-53
2023/05/18 05:27:49;;;;;;;;;;;;;;;;;;5132397;27;1501;-54
2023/05/18 05:30:18;;;;;;;;;;;;;;;;;;5135507;27;1600;-52
2023/05/18 05:32:46;;;;;;;;;;;;;;;;;;5152924;27;1395;-53
2023/05/18 05:35:13;;;;;;;;;;;;;;;;;;5154406;27;1258;-62
2023/05/18 05:37:41;;;;;;;;;;;;;;;;;;5152529;27;2295;-52
2023/05/18 05:40:08;;;;;;;;;;;;;;;;;;5152679;27;2076;-54
2023/05/18 05:42:41;;;;;;;;;;;;;;;;;;5152576;27;1885;-52
2023/05/18 05:45:08;;;;;;;;;;;;;;;;;;5153824;27;2081;-53
2023/05/18 05:47:42;;;;;;;;;;;;;;;;;;5152575;27;1442;-57
2023/05/18 05:50:11;;;;;;;;;;;;;;;;;;5152171;27;2014;-49
2023/05/18 05:52:43;;;;;;;;;;;;;;;;;;5152229;27;2093;-50
2023/05/18 05:55:10;;;;;;;;;;;;;;;;;;5151457;27;1872;-56
2023/05/18 05:57:41;;;;;;;;;;;;;;;;;;5152765;27;1909;-64
2023/05/18 06:00:10;;;;;;;;;;;;;;;;;;5152354;27;1935;-61
2023/05/18 06:02:53;;;;;;;;;;;;;;;;;;5152271;27;1875;-53
2023/05/18 06:05:29;;;;;;;;;;;;;;;;;;5152436;27;2041;-58
2023/05/18 06:07:57;;;;;;;;;;;;;;;;;;5151724;27;2148;-52
2023/05/18 06:10:24;;;;;;;;;;;;;;;;;;5152196;27;2259;-61
2023/05/18 06:12:52;;;;;;;;;;;;;;;;;;5151369;27;1462;-57
2023/05/18 06:15:28;;;;;;;;;;;;;;;;;;5152172;27;2025;-51
2023/05/18 06:17:56;;;;;;;;;;;;;;;;;;5151916;27;1903;-48
2023/05/18 06:20:23;;;;;;;;;;;;;;;;;;5151600;27;1922;-55
2023/05/18 06:22:51;;;;;;;;;;;;;;;;;;5151904;27;1532;-55
2023/05/18 06:25:38;;;;;;;;;;;;;;;;;;5138296;27;1271;-52
2023/05/18 06:28:31;;;;;;;;;;;;;;;;;;5150996;27;1363;-57
2023/05/18 06:31:07;;;;;;;;;;;;;;;;;;5151840;27;1989;-51
2023/05/18 06:33:47;;;;;;;;;;;;;;;;;;5151843;27;1269;-53
2023/05/18 06:36:15;;;;;;;;;;;;;;;;;;5151677;27;2129;-59
2023/05/18 06:38:42;;;;;;;;;;;;;;;;;;5134473;27;1538;-54
2023/05/18 06:41:10;;;;;;;;;;;;;;;;;;5151662;27;1973;-53
2023/05/18 06:43:37;;;;;;;;;;;;;;;;;;5152947;27;1818;-52
2023/05/18 06:46:28;;;;;;;;;;;;;;;;;;5151784;27;1842;-53
2023/05/18 06:49:00;;;;;;;;;;;;;;;;;;5151538;27;1762;-58
2023/05/18 06:51:27;;;;;;;;;;;;;;;;;;5152905;27;1794;-59
2023/05/18 06:53:55;;;;;;;;;;;;;;;;;;5152490;27;1805;-58
2023/05/18 06:56:24;;;;;;;;;;;;;;;;;;5151439;27;1510;-51
2023/05/18 06:58:51;;;;;;;;;;;;;;;;;;5132105;27;2389;-60
2023/05/18 07:01:18;;;;;;;;;;;;;;;;;;5130666;27;2137;-58
2023/05/18 07:03:46;;;;;;;;;;;;;;;;;;5130645;28;1781;-53
2023/05/18 07:06:13;;;;;;;;;;;;;;;;;;5130833;27;1984;-61
2023/05/18 07:08:40;;;;;;;;;;;;;;;;;;5131936;27;1401;-59
2023/05/18 07:11:09;;;;;;;;;;;;;;;;;;5131004;28;2177;-57
2023/05/18 07:13:37;;;;;;;;;;;;;;;;;;5132686;27;1336;-55
2023/05/18 07:16:05;;;;;;;;;;;;;;;;;;5132520;28;1524;-58
2023/05/18 07:18:32;;;;;;;;;;;;;;;;;;5132184;27;2161;-63
2023/05/18 07:21:01;;;;;;;;;;;;;;;;;;5132217;27;1918;-53
2023/05/18 07:23:29;;;;;;;;;;;;;;;;;;5134446;27;1477;-57
2023/05/18 07:25:56;;;;;;;;;;;;;;;;;;5136327;27;1749;-53
2023/05/18 07:28:23;;;;;;;;;;;;;;;;;;5136081;27;2081;-57
2023/05/18 07:30:51;;;;;;;;;;;;;;;;;;5152891;27;1488;-53
2023/05/18 07:33:18;;;;;;;;;;;;;;;;;;5156358;27;1428;-58
2023/05/18 07:35:45;;;;;;;;;;;;;;;;;;5156554;27;1983;-62
2023/05/18 07:38:12;;;;;;;;;;;;;;;;;;5156482;27;1687;-57
2023/05/18 07:40:39;;;;;;;;;;;;;;;;;;5156587;27;1965;-56
2023/05/18 07:43:07;;;;;;;;;;;;;;;;;;5156822;27;2016;-61
2023/05/18 07:45:34;;;;;;;;;;;;;;;;;;5156797;27;1947;-59
2023/05/18 07:48:04;;;;;;;;;;;;;;;;;;5155950;27;1866;-60
2023/05/18 07:50:33;;;;;;;;;;;;;;;;;;5175103;27;1727;-57
2023/05/18 07:53:00;;;;;;;;;;;;;;;;;;5158821;27;1867;-52
2023/05/18 07:55:28;;;;;;;;;;;;;;;;;;5177388;27;1252;-58
2023/05/18 07:57:56;;;;;;;;;;;;;;;;;;5165676;27;1531;-62
2023/05/18 08:00:23;;;;;;;;;;;;;;;;;;5166901;27;2020;-54
2023/05/18 08:02:51;;;;;;;;;;;;;;;;;;5176971;27;1263;-56
2023/05/18 08:05:21;;;;;;;;;;;;;;;;;;5177048;27;1646;-56
2023/05/18 08:07:48;;;;;;;;;;;;;;;;;;5176785;27;2039;-54
2023/05/18 08:10:15;;;;;;;;;;;;;;;;;;5176408;27;1828;-59
2023/05/18 08:12:42;;;;;;;;;;;;;;;;;;5176710;27;2092;-58
2023/05/18 08:15:10;;;;;;;;;;;;;;;;;;5176729;27;1545;-52
2023/05/18 08:17:38;;;;;;;;;;;;;;;;;;5176555;27;1584;-58
2023/05/18 08:20:09;;;;;;;;;;;;;;;;;;5175449;27;1914;-60
2023/05/18 08:22:36;;;;;;;;;;;;;;;;;;5176414;27;1953;-61
2023/05/18 08:25:04;;;;;;;;;;;;;;;;;;5176309;27;1854;-59
2023/05/18 08:27:31;;;;;;;;;;;;;;;;;;5175990;27;1379;-52
2023/05/18 08:29:58;;;;;;;;;;;;;;;;;;5175861;27;2036;-54
2023/05/18 08:32:26;;;;;;;;;;;;;;;;;;5175600;27;1763;-51
2023/05/18 08:34:53;;;;;;;;;;;;;;;;;;5175215;27;2021;-51
2023/05/18 08:37:21;;;;;;;;;;;;;;;;;;5176026;27;1470;-49
2023/05/18 08:39:48;;;;;;;;;;;;;;;;;;5175799;27;1905;-56
2023/05/18 08:42:15;;;;;;;;;;;;;;;;;;5175773;27;1699;-52
2023/05/18 08:44:50;;;;;;;;;;;;;;;;;;5176295;27;2159;-60
2023/05/18 08:47:24;;;;;;;;;;;;;;;;;;5175847;27;1664;-55
2023/05/18 08:49:54;;;;;;;;;;;;;;;;;;5175510;27;1975;-58
2023/05/18 08:52:26;;;;;;;;;;;;;;;;;;5175569;27;1848;-66
2023/05/18 08:54:56;;;;;;;;;;;;;;;;;;5175703;27;1762;-58
2023/05/18 08:57:23;;;;;;;;;;;;;;;;;;5168921;27;1954;-55
2023/05/18 08:59:51;;;;;;;;;;;;;;;;;;5154816;27;2031;-60
2023/05/18 09:02:18;;;;;;;;;;;;;;;;;;5154744;27;1726;-55
2023/05/18 09:04:46;;;;;;;;;;;;;;;;;;5164009;27;1814;-55
2023/05/18 09:07:14;;;;;;;;;;;;;;;;;;5175654;27;2015;-59
2023/05/18 09:09:43;;;;;;;;;;;;;;;;;;5174674;27;1446;-57
2023/05/18 09:12:10;;;;;;;;;;;;;;;;;;5175028;27;1543;-54
2023/05/18 09:14:40;;;;;;;;;;;;;;;;;;5175154;27;1670;-54
2023/05/18 09:17:08;;;;;;;;;;;;;;;;;;5175457;27;2044;-52
2023/05/18 09:19:35;;;;;;;;;;;;;;;;;;5169920;27;1909;-56
2023/05/18 09:22:03;;;;;;;;;;;;;;;;;;5154268;27;1404;-57
2023/05/18 09:24:30;;;;;;;;;;;;;;;;;;5154307;27;1509;-51
2023/05/18 09:26:57;;;;;;;;;;;;;;;;;;5154191;27;2007;-54
2023/05/18 09:29:25;;;;;;;;;;;;;;;;;;5154265;27;1283;-57
2023/05/18 09:31:53;;;;;;;;;;;;;;;;;;5154167;27;1969;-63
2023/05/18 09:34:21;;;;;;;;;;;;;;;;;;5153819;27;1945;-60
2023/05/18 09:36:51;;;;;;;;;;;;;;;;;;5154205;27;1806;-57
2023/05/18 09:39:19;;;;;;;;;;;;;;;;;;5154425;27;2147;-57
2023/05/18 09:41:46;;;;;;;;;;;;;;;;;;5153187;27;2280;-63
2023/05/18 09:44:13;;;;;;;;;;;;;;;;;;5135335;27;1556;-54
2023/05/18 09:46:41;;;;;;;;;;;;;;;;;;5153736;27;1341;-59
2023/05/18 09:49:08;;;;;;;;;;;;;;;;;;5153829;27;2018;-52
2023/05/18 09:51:39;;;;;;;;;;;;;;;;;;5153729;27;1686;-55
2023/05/18 09:54:09;;;;;;;;;;;;;;;;;;5153768;27;1570;-60
2023/05/18 09:56:37;;;;;;;;;;;;;;;;;;5153669;27;2045;-60
2023/05/18 09:59:11;;;;;;;;;;;;;;;;;;5153595;27;1976;-51
2023/05/18 10:02:01;;;;;;;;;;;;;;;;;;5171466;27;1980;-59
2023/05/18 10:04:39;;;;;;;;;;;;;;;;;;5155829;27;2025;-58
2023/05/18 10:07:11;;;;;;;;;;;;;;;;;;5173838;27;1734;-62
2023/05/18 10:09:43;;;;;;;;;;;;;;;;;;5174096;27;2264;-56
2023/05/18 10:12:14;;;;;;;;;;;;;;;;;;5173817;27;2109;-55
2023/05/18 10:14:42;;;;;;;;;;;;;;;;;;5174098;27;1234;-54
2023/05/18 10:17:10;;;;;;;;;;;;;;;;;;5173614;27;2007;-52
2023/05/18 10:19:42;;;;;;;;;;;;;;;;;;5174334;27;1914;-55
2023/05/18 10:22:14;;;;;;;;;;;;;;;;;;5174152;27;1684;-53
2023/05/18 10:24:44;;;;;;;;;;;;;;;;;;5173976;27;2119;-56
2023/05/18 10:27:13;;;;;;;;;;;;;;;;;;5173216;27;1895;-54
2023/05/18 10:29:40;;;;;;;;;;;;;;;;;;5173331;27;1685;-60
2023/05/18 10:32:11;;;;;;;;;;;;;;;;;;5173233;27;1466;-57
2023/05/18 10:34:39;;;;;;;;;;;;;;;;;;5172829;27;1906;-56
2023/05/18 10:37:07;;;;;;;;;;;;;;;;;;5173159;27;1706;-57
2023/05/18 10:39:37;;;;;;;;;;;;;;;;;;5172924;27;1861;-50
2023/05/18 10:42:07;;;;;;;;;;;;;;;;;;5173680;27;2203;-60
2023/05/18 10:44:35;;;;;;;;;;;;;;;;;;5173259;27;1656;-52
2023/05/18 10:47:04;;;;;;;;;;;;;;;;;;5173939;27;1680;-56
2023/05/18 10:49:32;;;;;;;;;;;;;;;;;;5173791;27;2105;-51
2023/05/18 10:52:00;;;;;;;;;;;;;;;;;;5173685;27;1758;-56
2023/05/18 10:54:27;;;;;;;;;;;;;;;;;;5172961;27;1827;-53
2023/05/18 10:56:54;;;;;;;;;;;;;;;;;;5171155;27;1293;-56
2023/05/18 10:59:22;;;;;;;;;;;;;;;;;;5152745;27;1512;-49
2023/05/18 11:01:51;;;;;;;;;;;;;;;;;;5152901;27;1906;-52
2023/05/18 11:04:31;;;;;;;;;;;;;;;;;;5152895;27;1572;-57
2023/05/18 11:06:59;;;;;;;;;;;;;;;;;;5152899;27;1919;-61
2023/05/18 11:09:29;;;;;;;;;;;;;;;;;;5152826;27;2004;-64
2023/05/18 11:11:57;;;;;;;;;;;;;;;;;;5152673;27;1877;-59
2023/05/18 11:14:28;;;;;;;;;;;;;;;;;;5152519;27;1970;-49
2023/05/18 11:17:14;;;;;;;;;;;;;;;;;;5152649;27;1853;-59
2023/05/18 11:20:00;;;;;;;;;;;;;;;;;;5152718;27;1507;-57
2023/05/18 11:22:47;;;;;;;;;;;;;;;;;;5152452;27;2046;-54
2023/05/18 11:25:27;;;;;;;;;;;;;;;;;;5134475;27;1638;-62
2023/05/18 11:27:56;;;;;;;;;;;;;;;;;;5152587;27;1589;-52
2023/05/18 11:30:29;;;;;;;;;;;;;;;;;;5152820;27;2029;-50
2023/05/18 11:33:09;;;;;;;;;;;;;;;;;;5152154;27;1645;-59
2023/05/18 11:35:56;;;;;;;;;;;;;;;;;;5152218;27;1749;-53
2023/05/18 11:38:44;;;;;;;;;;;;;;;;;;5152729;27;1746;-54
2023/05/18 11:41:28;;;;;;;;;;;;;;;;;;5152282;27;1976;-54
2023/05/18 11:44:11;;;;;;;;;;;;;;;;;;5152392;27;1212;-62
2023/05/18 11:46:56;;;;;;;;;;;;;;;;;;5152198;27;1846;-50
2023/05/18 11:49:25;;;;;;;;;;;;;;;;;;5152602;27;1675;-60
2023/05/18 11:51:57;;;;;;;;;;;;;;;;;;5152449;27;1856;-57
2023/05/18 11:54:25;;;;;;;;;;;;;;;;;;5152112;27;1953;-48
2023/05/18 11:56:53;;;;;;;;;;;;;;;;;;5162790;27;1947;-53
2023/05/18 11:59:30;;;;;;;;;;;;;;;;;;5152321;27;1995;-58
2023/05/18 12:01:59;;;;;;;;;;;;;;;;;;5152079;27;1981;-52
2023/05/18 12:04:27;;;;;;;;;;;;;;;;;;5152201;27;1549;-53
2023/05/18 12:06:55;;;;;;;;;;;;;;;;;;5152384;27;1699;-58
2023/05/18 12:09:23;;;;;;;;;;;;;;;;;;5152612;27;1745;-51
2023/05/18 12:11:50;;;;;;;;;;;;;;;;;;5156025;27;1929;-59
2023/05/18 12:14:21;;;;;;;;;;;;;;;;;;5155947;27;2132;-56
2023/05/18 12:16:48;;;;;;;;;;;;;;;;;;5155610;27;1489;-55
2023/05/18 12:19:17;;;;;;;;;;;;;;;;;;5155851;27;1845;-61
2023/05/18 12:21:45;;;;;;;;;;;;;;;;;;5155861;27;1974;-57
2023/05/18 12:24:14;;;;;;;;;;;;;;;;;;5155710;27;1821;-60
2023/05/18 12:26:41;;;;;;;;;;;;;;;;;;5155634;27;1635;-55
2023/05/18 12:29:10;;;;;;;;;;;;;;;;;;5155532;27;2047;-59
2023/05/18 12:31:38;;;;;;;;;;;;;;;;;;5155559;27;1648;-57
2023/05/18 12:34:08;;;;;;;;;;;;;;;;;;5155433;27;1978;-62
2023/05/18 12:36:39;;;;;;;;;;;;;;;;;;5155017;27;2141;-61
2023/05/18 12:39:07;;;;;;;;;;;;;;;;;;5136845;27;1559;-57
2023/05/18 12:41:34;;;;;;;;;;;;;;;;;;5155364;27;1978;-57
2023/05/18 12:44:03;;;;;;;;;;;;;;;;;;5155370;27;1761;-49
2023/05/18 12:46:31;;;;;;;;;;;;;;;;;;5155330;27;1844;-60
2023/05/18 12:49:00;;;;;;;;;;;;;;;;;;5161558;27;1878;-57
2023/05/18 12:51:31;;;;;;;;;;;;;;;;;;5157993;27;1422;-56
2023/05/18 12:53:58;;;;;;;;;;;;;;;;;;5176248;27;1392;-55
2023/05/18 12:56:26;;;;;;;;;;;;;;;;;;5175880;27;1957;-61
2023/05/18 12:58:57;;;;;;;;;;;;;;;;;;5156251;27;1998;-46
2023/05/18 13:01:26;;;;;;;;;;;;;;;;;;5155456;27;2146;-51
2023/05/18 13:03:56;;;;;;;;;;;;;;;;;;5155198;27;1338;-58
2023/05/18 13:06:23;;;;;;;;;;;;;;;;;;5136796;27;1658;-60
2023/05/18 13:08:57;;;;;;;;;;;;;;;;;;5154726;27;2079;-52
2023/05/18 13:11:25;;;;;;;;;;;;;;;;;;5155066;27;2254;-52
2023/05/18 13:13:59;;;;;;;;;;;;;;;;;;5154204;27;1882;-62
2023/05/18 13:16:28;;;;;;;;;;;;;;;;;;5154565;27;1693;-58
2023/05/18 13:18:57;;;;;;;;;;;;;;;;;;5155104;27;1739;-54
2023/05/18 13:21:25;;;;;;;;;;;;;;;;;;5153981;27;2037;-54
2023/05/18 13:23:52;;;;;;;;;;;;;;;;;;5154628;27;1849;-64
2023/05/18 13:26:20;;;;;;;;;;;;;;;;;;5154640;27;1681;-58
2023/05/18 13:28:49;;;;;;;;;;;;;;;;;;5154459;27;1859;-55
2023/05/18 13:31:17;;;;;;;;;;;;;;;;;;5154495;27;1550;-61
2023/05/18 13:33:45;;;;;;;;;;;;;;;;;;5154207;27;1710;-60
2023/05/18 13:36:12;;;;;;;;;;;;;;;;;;5154235;27;1997;-62
2023/05/18 13:38:40;;;;;;;;;;;;;;;;;;5154386;27;1527;-60
2023/05/18 13:41:08;;;;;;;;;;;;;;;;;;5154230;27;1917;-54
2023/05/18 13:43:36;;;;;;;;;;;;;;;;;;5154158;27;1984;-56
2023/05/18 13:46:03;;;;;;;;;;;;;;;;;;5154099;27;2069;-50
2023/05/18 13:48:31;;;;;;;;;;;;;;;;;;5163822;27;2009;-60
2023/05/18 13:50:58;;;;;;;;;;;;;;;;;;5174743;27;2099;-59
2023/05/18 13:53:26;;;;;;;;;;;;;;;;;;5174644;27;2033;-52
2023/05/18 13:55:53;;;;;;;;;;;;;;;;;;5156496;27;1895;-58
2023/05/18 13:58:24;;;;;;;;;;;;;;;;;;5159325;27;1464;-56
2023/05/18 14:00:53;;;;;;;;;;;;;;;;;;5154794;27;1908;-57
2023/05/18 14:03:20;;;;;;;;;;;;;;;;;;5160665;27;1674;-52
2023/05/18 14:05:48;;;;;;;;;;;;;;;;;;5174582;27;1386;-54
2023/05/18 14:08:15;;;;;;;;;;;;;;;;;;5174176;27;1726;-60
2023/05/18 14:10:42;;;;;;;;;;;;;;;;;;5174043;27;1268;-59
2023/05/18 14:13:10;;;;;;;;;;;;;;;;;;5174530;27;1690;-61
2023/05/18 14:15:37;;;;;;;;;;;;;;;;;;5174113;27;1977;-55
2023/05/18 14:18:04;;;;;;;;;;;;;;;;;;5174256;27;1714;-55
2023/05/18 14:20:32;;;;;;;;;;;;;;;;;;5174627;27;1752;-54
2023/05/18 14:23:00;;;;;;;;;;;;;;;;;;5174413;27;1974;-57
2023/05/18 14:25:29;;;;;;;;;;;;;;;;;;5167388;27;2127;-60
2023/05/18 14:27:58;;;;;;;;;;;;;;;;;;5135237;27;1673;-53
2023/05/18 14:30:26;;;;;;;;;;;;;;;;;;5152759;27;1367;-54
2023/05/18 14:32:53;;;;;;;;;;;;;;;;;;5152676;27;1910;-60
2023/05/18 14:35:20;;;;;;;;;;;;;;;;;;5153113;27;1724;-59
2023/05/18 14:37:47;;;;;;;;;;;;;;;;;;5153247;27;1378;-59
2023/05/18 14:40:14;;;;;;;;;;;;;;;;;;5173110;27;1983;-56
2023/05/18 14:42:41;;;;;;;;;;;;;;;;;;5173979;27;1909;-53
2023/05/18 14:45:09;;;;;;;;;;;;;;;;;;5173888;27;1621;-57
2023/05/18 14:47:36;;;;;;;;;;;;;;;;;;5173815;27;1623;-60
2023/05/18 14:50:03;;;;;;;;;;;;;;;;;;5174033;27;1438;-56
2023/05/18 14:52:31;;;;;;;;;;;;;;;;;;5174088;27;2013;-59
2023/05/18 14:54:58;;;;;;;;;;;;;;;;;;5173788;27;1809;-63
2023/05/18 14:57:25;;;;;;;;;;;;;;;;;;5166483;27;1958;-61
2023/05/18 14:59:52;;;;;;;;;;;;;;;;;;5154367;27;1403;-57
2023/05/18 15:02:20;;;;;;;;;;;;;;;;;;5173694;27;2091;-60
2023/05/18 15:04:47;;;;;;;;;;;;;;;;;;5173820;27;1821;-60
2023/05/18 15:07:14;;;;;;;;;;;;;;;;;;5173549;27;1866;-60
2023/05/18 15:09:41;;;;;;;;;;;;;;;;;;5173634;27;2041;-55
2023/05/18 15:12:09;;;;;;;;;;;;;;;;;;5173561;27;1696;-56
2023/05/18 15:14:36;;;;;;;;;;;;;;;;;;5173585;27;1622;-52
2023/05/18 15:17:06;;;;;;;;;;;;;;;;;;5173765;27;1581;-58
2023/05/18 15:19:33;;;;;;;;;;;;;;;;;;5173582;27;1667;-55
2023/05/18 15:22:00;;;;;;;;;;;;;;;;;;5172974;27;1909;-55
2023/05/18 15:24:27;;;;;;;;;;;;;;;;;;5171654;27;1471;-54
2023/05/18 15:26:55;;;;;;;;;;;;;;;;;;5171188;27;1317;-56
2023/05/18 15:29:22;;;;;;;;;;;;;;;;;;5171166;27;1834;-55
2023/05/18 15:31:50;;;;;;;;;;;;;;;;;;5171484;27;1435;-50
2023/05/18 15:34:18;;;;;;;;;;;;;;;;;;5171581;27;2043;-57
2023/05/18 15:36:46;;;;;;;;;;;;;;;;;;5171169;27;1942;-59
2023/05/18 15:39:13;;;;;;;;;;;;;;;;;;5172099;27;1703;-54
2023/05/18 15:41:40;;;;;;;;;;;;;;;;;;5172660;27;1917;-58
2023/05/18 15:44:07;;;;;;;;;;;;;;;;;;5174718;27;2420;-52
2023/05/18 15:46:34;;;;;;;;;;;;;;;;;;5177639;27;2063;-50
2023/05/18 15:49:02;;;;;;;;;;;;;;;;;;5177178;27;1736;-50
2023/05/18 15:51:30;;;;;;;;;;;;;;;;;;5177199;27;1439;-52
2023/05/18 15:53:57;;;;;;;;;;;;;;;;;;5177352;27;1269;-56
2023/05/18 15:56:24;;;;;;;;;;;;;;;;;;5177170;27;1826;-55
2023/05/18 15:58:52;;;;;;;;;;;;;;;;;;5176776;27;2346;-54
2023/05/18 16:01:19;;;;;;;;;;;;;;;;;;5177247;27;1980;-50
2023/05/18 16:03:46;;;;;;;;;;;;;;;;;;5176900;27;1389;-49
2023/05/18 16:06:14;;;;;;;;;;;;;;;;;;5177284;27;2062;-53
2023/05/18 16:08:41;;;;;;;;;;;;;;;;;;5177039;27;2222;-61
2023/05/18 16:11:08;;;;;;;;;;;;;;;;;;5176953;27;1678;-54
2023/05/18 16:13:35;;;;;;;;;;;;;;;;;;5176939;27;1490;-51
2023/05/18 16:16:02;;;;;;;;;;;;;;;;;;5176638;27;2267;-48
2023/05/18 16:18:30;;;;;;;;;;;;;;;;;;5176457;27;1407;-52
2023/05/18 16:20:57;;;;;;;;;;;;;;;;;;5176601;27;1796;-51
2023/05/18 16:23:24;;;;;;;;;;;;;;;;;;5176718;27;2011;-51
2023/05/18 16:25:52;;;;;;;;;;;;;;;;;;5176667;27;1877;-48
2023/05/18 16:28:19;;;;;;;;;;;;;;;;;;5176723;27;1515;-50
2023/05/18 16:30:46;;;;;;;;;;;;;;;;;;5176708;27;2263;-58
2023/05/18 16:33:15;;;;;;;;;;;;;;;;;;5176595;27;1954;-59
2023/05/18 16:35:42;;;;;;;;;;;;;;;;;;5176431;27;1869;-57
2023/05/18 16:38:12;;;;;;;;;;;;;;;;;;5176721;27;2006;-54
2023/05/18 16:40:39;;;;;;;;;;;;;;;;;;5176428;27;1734;-54
2023/05/18 16:43:06;;;;;;;;;;;;;;;;;;5176147;27;2220;-54
2023/05/18 16:45:34;;;;;;;;;;;;;;;;;;5176009;27;1778;-53
2023/05/18 16:48:02;;;;;;;;;;;;;;;;;;5176320;27;2119;-59
2023/05/18 16:50:30;;;;;;;;;;;;;;;;;;5176099;27;1886;-57
2023/05/18 16:52:57;;;;;;;;;;;;;;;;;;5176092;27;1946;-55
2023/05/18 16:55:25;;;;;;;;;;;;;;;;;;5174967;27;1758;-57
2023/05/18 16:57:52;;;;;;;;;;;;;;;;;;5164912;27;1843;-51
2023/05/18 17:00:20;;;;;;;;;;;;;;;;;;5154531;27;2053;-51
2023/05/18 17:02:47;;;;;;;;;;;;;;;;;;5154832;27;1974;-56
2023/05/18 17:05:20;;;;;;;;;;;;;;;;;;5155047;27;1895;-63
2023/05/18 17:07:50;;;;;;;;;;;;;;;;;;5155035;27;1933;-55
2023/05/18 17:10:18;;;;;;;;;;;;;;;;;;5154826;27;2086;-52
2023/05/18 17:12:45;;;;;;;;;;;;;;;;;;5154746;27;1544;-51
2023/05/18 17:15:13;;;;;;;;;;;;;;;;;;5154981;27;1374;-57
2023/05/18 17:17:41;;;;;;;;;;;;;;;;;;5154959;27;2127;-58